sensor_id;sensor_type;location;lat;lon;timestamp;pressure;altitude;pressure_sealevel;temperature;humidity
25638;BME280;13496;51.040;13.680;2023-05-12T00:04:35;99739.56;;;23.14;44.35
25638;BME280;13496;51.040;13.680;2023-05-12T00:09:37;99738.97;;;23.12;44.77
25638;BME280;13496;51.040;13.680;2023-05-12T00:14:39;99732.06;;;23.11;44.54
25638;BME280;13496;51.040;13.680;2023-05-12T00:19:41;99730.66;;;23.09;44.81
25638;BME280;13496;51.040;13.680;2023-05-12T00:24:44;99739.41;;;23.09;44.62
25638;BME280;13496;51.040;13.680;2023-05-12T00:29:46;99736.19;;;23.07;44.72
25638;BME280;13496;51.040;13.680;2023-05-12T00:34:48;99732.94;;;23.05;44.71
25638;BME280;13496;51.040;13.680;2023-05-12T00:39:50;99737.19;;;23.06;44.72
25638;BME280;13496;51.040;13.680;2023-05-12T00:44:52;99740.28;;;23.03;44.61
25638;BME280;13496;51.040;13.680;2023-05-12T00:49:54;99732.56;;;23.02;44.71
25638;BME280;13496;51.040;13.680;2023-05-12T00:54:57;99732.78;;;23.00;44.95
25638;BME280;13496;51.040;13.680;2023-05-12T01:00:00;99744.41;;;22.99;44.97
25638;BME280;13496;51.040;13.680;2023-05-12T01:05:02;99736.09;;;22.96;45.10
25638;BME280;13496;51.040;13.680;2023-05-12T01:10:16;99738.34;;;22.92;45.27
25638;BME280;13496;51.040;13.680;2023-05-12T01:15:18;99734.88;;;22.91;45.15
25638;BME280;13496;51.040;13.680;2023-05-12T01:20:23;99732.44;;;22.90;45.13
25638;BME280;13496;51.040;13.680;2023-05-12T01:25:27;99740.00;;;22.86;45.00
25638;BME280;13496;51.040;13.680;2023-05-12T01:30:32;99735.72;;;22.85;45.36
25638;BME280;13496;51.040;13.680;2023-05-12T01:35:35;99737.78;;;22.83;45.12
25638;BME280;13496;51.040;13.680;2023-05-12T01:40:37;99743.06;;;22.83;45.12
25638;BME280;13496;51.040;13.680;2023-05-12T01:45:39;99750.63;;;22.80;45.33
25638;BME280;13496;51.040;13.680;2023-05-12T01:50:41;99742.09;;;22.78;45.15
25638;BME280;13496;51.040;13.680;2023-05-12T01:55:47;99751.03;;;22.77;45.10
25638;BME280;13496;51.040;13.680;2023-05-12T02:00:49;99748.63;;;22.75;45.48
25638;BME280;13496;51.040;13.680;2023-05-12T02:05:52;99748.84;;;22.74;45.35
25638;BME280;13496;51.040;13.680;2023-05-12T02:11:05;99750.69;;;22.73;45.33
25638;BME280;13496;51.040;13.680;2023-05-12T02:16:07;99752.97;;;22.69;45.21
25638;BME280;13496;51.040;13.680;2023-05-12T02:21:09;99755.59;;;22.69;45.59
25638;BME280;13496;51.040;13.680;2023-05-12T02:26:11;99756.03;;;22.66;45.29
25638;BME280;13496;51.040;13.680;2023-05-12T02:31:12;99752.34;;;22.67;45.05
25638;BME280;13496;51.040;13.680;2023-05-12T02:36:14;99755.22;;;22.66;45.29
25638;BME280;13496;51.040;13.680;2023-05-12T02:41:16;99762.53;;;22.64;45.38
25638;BME280;13496;51.040;13.680;2023-05-12T02:46:18;99759.28;;;22.62;45.25
25638;BME280;13496;51.040;13.680;2023-05-12T02:51:20;99751.34;;;22.62;45.19
25638;BME280;13496;51.040;13.680;2023-05-12T02:56:21;99754.00;;;22.62;45.26
25638;BME280;13496;51.040;13.680;2023-05-12T03:01:23;99761.34;;;22.60;45.67
25638;BME280;13496;51.040;13.680;2023-05-12T03:06:25;99752.63;;;22.59;45.18
25638;BME280;13496;51.040;13.680;2023-05-12T03:11:27;99761.59;;;22.58;44.77
25638;BME280;13496;51.040;13.680;2023-05-12T03:16:29;99762.00;;;22.55;45.17
25638;BME280;13496;51.040;13.680;2023-05-12T03:21:30;99765.22;;;22.57;45.23
25638;BME280;13496;51.040;13.680;2023-05-12T03:26:32;99762.59;;;22.57;45.15
25638;BME280;13496;51.040;13.680;2023-05-12T03:31:34;99766.25;;;22.56;45.28
25638;BME280;13496;51.040;13.680;2023-05-12T03:36:37;99763.84;;;22.55;45.45
25638;BME280;13496;51.040;13.680;2023-05-12T03:41:39;99765.47;;;22.56;45.22
25638;BME280;13496;51.040;13.680;2023-05-12T03:46:40;99761.78;;;22.57;45.22
25638;BME280;13496;51.040;13.680;2023-05-12T03:51:42;99765.47;;;22.56;45.06
25638;BME280;13496;51.040;13.680;2023-05-12T03:56:44;99763.84;;;22.55;44.80
25638;BME280;13496;51.040;13.680;2023-05-12T04:01:46;99774.63;;;22.53;45.04
25638;BME280;13496;51.040;13.680;2023-05-12T04:06:47;99774.03;;;22.51;45.01
25638;BME280;13496;51.040;13.680;2023-05-12T04:11:49;99773.00;;;22.52;44.65
25638;BME280;13496;51.040;13.680;2023-05-12T04:16:51;99776.22;;;22.54;44.87
25638;BME280;13496;51.040;13.680;2023-05-12T04:21:53;99778.88;;;22.54;44.77
25638;BME280;13496;51.040;13.680;2023-05-12T04:26:56;99778.88;;;22.54;44.74
25638;BME280;13496;51.040;13.680;2023-05-12T04:31:58;99773.59;;;22.54;45.13
25638;BME280;13496;51.040;13.680;2023-05-12T04:37:01;99776.44;;;22.53;45.20
25638;BME280;13496;51.040;13.680;2023-05-12T04:42:03;99780.72;;;22.54;45.45
25638;BME280;13496;51.040;13.680;2023-05-12T04:47:07;99792.94;;;22.55;45.32
25638;BME280;13496;51.040;13.680;2023-05-12T04:52:10;99789.44;;;22.54;44.96
25638;BME280;13496;51.040;13.680;2023-05-12T04:57:12;99792.69;;;22.56;45.25
25638;BME280;13496;51.040;13.680;2023-05-12T05:02:14;99781.91;;;22.58;45.15
25638;BME280;13496;51.040;13.680;2023-05-12T05:07:16;99792.06;;;22.61;45.00
25638;BME280;13496;51.040;13.680;2023-05-12T05:12:18;99792.66;;;22.63;45.38
25638;BME280;13496;51.040;13.680;2023-05-12T05:17:20;99788.56;;;22.67;44.73
25638;BME280;13496;51.040;13.680;2023-05-12T05:22:22;99800.75;;;22.68;44.88
25638;BME280;13496;51.040;13.680;2023-05-12T05:27:24;99807.25;;;22.72;44.62
25638;BME280;13496;51.040;13.680;2023-05-12T05:32:26;99813.56;;;22.71;44.90
25638;BME280;13496;51.040;13.680;2023-05-12T05:37:28;99808.06;;;22.73;44.76
25638;BME280;13496;51.040;13.680;2023-05-12T05:42:31;99811.31;;;22.75;44.87
25638;BME280;13496;51.040;13.680;2023-05-12T05:47:33;99810.28;;;22.76;44.42
25638;BME280;13496;51.040;13.680;2023-05-12T05:52:36;99809.25;;;22.77;44.28
25638;BME280;13496;51.040;13.680;2023-05-12T05:57:38;99817.78;;;22.79;44.45
25638;BME280;13496;51.040;13.680;2023-05-12T06:02:40;99827.94;;;22.82;44.56
25638;BME280;13496;51.040;13.680;2023-05-12T06:07:43;99820.59;;;22.84;44.15
25638;BME280;13496;51.040;13.680;2023-05-12T06:12:44;99832.19;;;22.83;44.39
25638;BME280;13496;51.040;13.680;2023-05-12T06:17:46;99829.13;;;22.86;44.25
25638;BME280;13496;51.040;13.680;2023-05-12T06:22:48;99835.63;;;22.90;44.49
25638;BME280;13496;51.040;13.680;2023-05-12T06:27:51;99833.63;;;22.92;44.30
25638;BME280;13496;51.040;13.680;2023-05-12T06:32:53;99833.16;;;22.95;44.51
25638;BME280;13496;51.040;13.680;2023-05-12T06:37:56;99842.13;;;22.94;44.44
25638;BME280;13496;51.040;13.680;2023-05-12T06:42:58;99838.44;;;22.95;44.66
25638;BME280;13496;51.040;13.680;2023-05-12T06:48:01;99836.19;;;22.99;43.77
25638;BME280;13496;51.040;13.680;2023-05-12T06:53:05;99835.56;;;23.03;44.61
25638;BME280;13496;51.040;13.680;2023-05-12T06:58:08;99835.56;;;23.03;44.50
25638;BME280;13496;51.040;13.680;2023-05-12T07:03:10;99837.19;;;23.04;44.13
25638;BME280;13496;51.040;13.680;2023-05-12T07:08:12;99838.78;;;23.05;44.42
25638;BME280;13496;51.040;13.680;2023-05-12T07:13:14;99832.25;;;23.08;44.30
25638;BME280;13496;51.040;13.680;2023-05-12T07:18:15;99833.06;;;23.08;44.13
25638;BME280;13496;51.040;13.680;2023-05-12T07:23:17;99827.34;;;23.11;44.08
25638;BME280;13496;51.040;13.680;2023-05-12T07:28:19;99826.31;;;23.12;43.91
25638;BME280;13496;51.040;13.680;2023-05-12T07:33:20;99822.44;;;23.15;44.34
25638;BME280;13496;51.040;13.680;2023-05-12T07:38:22;99828.09;;;23.18;43.79
25638;BME280;13496;51.040;13.680;2023-05-12T07:43:24;99823.63;;;23.19;44.17
25638;BME280;13496;51.040;13.680;2023-05-12T07:48:26;99833.78;;;23.22;44.20
25638;BME280;13496;51.040;13.680;2023-05-12T07:53:28;99826.41;;;23.24;44.06
25638;BME280;13496;51.040;13.680;2023-05-12T07:58:29;99827.84;;;23.27;43.86
25638;BME280;13496;51.040;13.680;2023-05-12T08:03:32;99831.09;;;23.29;43.94
25638;BME280;13496;51.040;13.680;2023-05-12T08:08:33;99829.63;;;23.33;43.92
25638;BME280;13496;51.040;13.680;2023-05-12T08:13:37;99830.19;;;23.35;43.71
25638;BME280;13496;51.040;13.680;2023-05-12T08:18:38;99822.63;;;23.38;43.91
25638;BME280;13496;51.040;13.680;2023-05-12T08:23:40;99823.81;;;23.42;43.85
25638;BME280;13496;51.040;13.680;2023-05-12T08:28:42;99828.75;;;23.57;43.61
25638;BME280;13496;51.040;13.680;2023-05-12T08:33:43;99828.88;;;23.69;43.33
25638;BME280;13496;51.040;13.680;2023-05-12T08:38:45;99827.63;;;23.72;43.37
25638;BME280;13496;51.040;13.680;2023-05-12T08:43:51;99831.91;;;23.73;43.31
25638;BME280;13496;51.040;13.680;2023-05-12T08:48:54;99829.91;;;23.68;43.26
25638;BME280;13496;51.040;13.680;2023-05-12T08:53:56;99837.47;;;23.64;43.45
25638;BME280;13496;51.040;13.680;2023-05-12T08:58:58;99832.56;;;23.68;43.52
25638;BME280;13496;51.040;13.680;2023-05-12T09:04:03;99836.94;;;23.81;43.20
25638;BME280;13496;51.040;13.680;2023-05-12T09:09:05;99837.81;;;23.93;42.91
25638;BME280;13496;51.040;13.680;2023-05-12T09:14:14;99841.19;;;24.00;43.11
25638;BME280;13496;51.040;13.680;2023-05-12T09:19:19;99833.81;;;24.02;43.06
25638;BME280;13496;51.040;13.680;2023-05-12T09:24:33;99833.38;;;24.05;42.82
25638;BME280;13496;51.040;13.680;2023-05-12T09:29:35;99838.38;;;24.13;42.68
25638;BME280;13496;51.040;13.680;2023-05-12T09:34:36;99834.75;;;24.26;42.13
25638;BME280;13496;51.040;13.680;2023-05-12T09:39:42;99833.03;;;24.32;42.60
25638;BME280;13496;51.040;13.680;2023-05-12T09:44:44;99833.78;;;24.39;42.28
25638;BME280;13496;51.040;13.680;2023-05-12T09:49:50;99834.97;;;24.43;43.38
25638;BME280;13496;51.040;13.680;2023-05-12T09:54:52;99830.81;;;24.47;42.18
25638;BME280;13496;51.040;13.680;2023-05-12T09:59:54;99837.31;;;24.51;42.55
25638;BME280;13496;51.040;13.680;2023-05-12T10:04:59;99831.53;;;24.54;43.25
25638;BME280;13496;51.040;13.680;2023-05-12T10:10:04;99829.50;;;24.56;42.60
25638;BME280;13496;51.040;13.680;2023-05-12T10:15:06;99818.56;;;24.65;43.06
25638;BME280;13496;51.040;13.680;2023-05-12T10:20:10;99820.50;;;24.69;42.45
25638;BME280;13496;51.040;13.680;2023-05-12T10:25:13;99820.66;;;24.74;42.55
25638;BME280;13496;51.040;13.680;2023-05-12T10:30:17;99821.59;;;24.80;42.34
25638;BME280;13496;51.040;13.680;2023-05-12T10:35:19;99822.88;;;24.77;42.33
25638;BME280;13496;51.040;13.680;2023-05-12T10:40:23;99826.69;;;24.81;41.72
25638;BME280;13496;51.040;13.680;2023-05-12T10:45:26;99823.34;;;24.86;42.26
25638;BME280;13496;51.040;13.680;2023-05-12T10:50:28;99830.41;;;24.92;42.70
25638;BME280;13496;51.040;13.680;2023-05-12T10:55:32;99818.50;;;24.95;42.39
25638;BME280;13496;51.040;13.680;2023-05-12T11:00:48;99813.09;;;25.01;41.68
25638;BME280;13496;51.040;13.680;2023-05-12T11:06:00;99821.16;;;24.95;42.56
25638;BME280;13496;51.040;13.680;2023-05-12T11:11:03;99817.47;;;24.96;42.23
25638;BME280;13496;51.040;13.680;2023-05-12T11:16:05;99818.63;;;25.00;42.19
25638;BME280;13496;51.040;13.680;2023-05-12T11:21:10;99808.63;;;25.14;41.60
25638;BME280;13496;51.040;13.680;2023-05-12T11:26:17;99813.13;;;25.25;41.78
25638;BME280;13496;51.040;13.680;2023-05-12T11:31:20;99818.78;;;25.17;41.43
25638;BME280;13496;51.040;13.680;2023-05-12T11:36:22;99820.34;;;24.94;42.35
25638;BME280;13496;51.040;13.680;2023-05-12T11:41:24;99824.50;;;24.90;42.25
25638;BME280;13496;51.040;13.680;2023-05-12T11:46:27;99826.91;;;24.92;42.04
25638;BME280;13496;51.040;13.680;2023-05-12T11:51:29;99830.13;;;24.82;42.39
25638;BME280;13496;51.040;13.680;2023-05-12T11:56:32;99832.09;;;24.86;42.49
25638;BME280;13496;51.040;13.680;2023-05-12T12:01:43;99821.84;;;25.02;41.91
25638;BME280;13496;51.040;13.680;2023-05-12T12:06:45;99828.97;;;25.20;41.78
25638;BME280;13496;51.040;13.680;2023-05-12T12:11:46;99831.50;;;25.15;41.67
25638;BME280;13496;51.040;13.680;2023-05-12T12:16:48;99839.19;;;25.04;41.68
25638;BME280;13496;51.040;13.680;2023-05-12T12:21:50;99845.84;;;24.95;41.96
25638;BME280;13496;51.040;13.680;2023-05-12T12:26:51;99855.19;;;24.86;42.21
25638;BME280;13496;51.040;13.680;2023-05-12T12:31:53;99849.16;;;24.79;42.36
25638;BME280;13496;51.040;13.680;2023-05-12T12:36:55;99851.81;;;24.79;42.49
25638;BME280;13496;51.040;13.680;2023-05-12T12:41:56;99853.59;;;24.85;42.36
25638;BME280;13496;51.040;13.680;2023-05-12T12:46:59;99854.84;;;24.94;42.10
25638;BME280;13496;51.040;13.680;2023-05-12T12:52:01;99856.25;;;24.97;42.26
25638;BME280;13496;51.040;13.680;2023-05-12T12:57:02;99854.88;;;25.06;41.72
25638;BME280;13496;51.040;13.680;2023-05-12T13:02:05;99849.28;;;25.14;41.58
25638;BME280;13496;51.040;13.680;2023-05-12T13:07:07;99851.41;;;25.05;42.26
25638;BME280;13496;51.040;13.680;2023-05-12T13:12:09;99842.75;;;24.98;42.17
25638;BME280;13496;51.040;13.680;2023-05-12T13:17:10;99843.19;;;24.95;42.39
25638;BME280;13496;51.040;13.680;2023-05-12T13:22:12;99841.72;;;24.99;42.10
25638;BME280;13496;51.040;13.680;2023-05-12T13:27:14;99834.63;;;25.12;42.30
25638;BME280;13496;51.040;13.680;2023-05-12T13:32:15;99836.34;;;25.18;41.75
25638;BME280;13496;51.040;13.680;2023-05-12T13:37:17;99832.91;;;25.29;41.99
25638;BME280;13496;51.040;13.680;2023-05-12T13:42:19;99831.50;;;25.26;41.75
25638;BME280;13496;51.040;13.680;2023-05-12T13:47:22;99838.88;;;25.13;42.13
25638;BME280;13496;51.040;13.680;2023-05-12T13:52:24;99847.44;;;25.15;42.41
25638;BME280;13496;51.040;13.680;2023-05-12T13:57:26;99834.97;;;25.15;42.04
25638;BME280;13496;51.040;13.680;2023-05-12T14:02:27;99833.91;;;25.16;42.21
25638;BME280;13496;51.040;13.680;2023-05-12T14:07:29;99831.84;;;25.18;42.13
25638;BME280;13496;51.040;13.680;2023-05-12T14:12:31;99838.44;;;25.16;42.41
25638;BME280;13496;51.040;13.680;2023-05-12T14:17:33;99836.81;;;25.15;42.06
25638;BME280;13496;51.040;13.680;2023-05-12T14:22:34;99833.69;;;25.18;42.36
25638;BME280;13496;51.040;13.680;2023-05-12T14:27:36;99831.97;;;25.23;42.41
25638;BME280;13496;51.040;13.680;2023-05-12T14:32:38;99842.59;;;25.23;41.94
25638;BME280;13496;51.040;13.680;2023-05-12T14:37:40;99861.53;;;25.15;42.39
25638;BME280;13496;51.040;13.680;2023-05-12T14:42:42;99874.84;;;25.08;42.55
25638;BME280;13496;51.040;13.680;2023-05-12T14:47:44;99889.03;;;25.02;42.33
25638;BME280;13496;51.040;13.680;2023-05-12T14:52:45;99896.75;;;24.92;42.26
25638;BME280;13496;51.040;13.680;2023-05-12T14:57:47;99876.34;;;24.93;42.42
25638;BME280;13496;51.040;13.680;2023-05-12T15:02:50;99859.13;;;24.95;42.31
25638;BME280;13496;51.040;13.680;2023-05-12T15:07:51;99857.88;;;24.98;42.38
25638;BME280;13496;51.040;13.680;2023-05-12T15:12:53;99855.00;;;24.99;42.53
25638;BME280;13496;51.040;13.680;2023-05-12T15:17:55;99859.03;;;25.02;42.64
25638;BME280;13496;51.040;13.680;2023-05-12T15:22:57;99856.81;;;24.99;42.58
25638;BME280;13496;51.040;13.680;2023-05-12T15:27:58;99856.00;;;24.98;42.74
25638;BME280;13496;51.040;13.680;2023-05-12T15:33:00;99852.56;;;24.98;42.84
25638;BME280;13496;51.040;13.680;2023-05-12T15:38:04;99848.41;;;25.02;42.59
25638;BME280;13496;51.040;13.680;2023-05-12T15:43:06;99846.56;;;25.02;42.36
25638;BME280;13496;51.040;13.680;2023-05-12T15:48:08;99845.53;;;25.03;42.78
25638;BME280;13496;51.040;13.680;2023-05-12T15:53:09;99828.31;;;25.06;42.77
25638;BME280;13496;51.040;13.680;2023-05-12T15:58:11;99829.38;;;25.05;42.78
25638;BME280;13496;51.040;13.680;2023-05-12T16:03:13;99833.88;;;25.04;43.54
25638;BME280;13496;51.040;13.680;2023-05-12T16:08:14;99846.56;;;25.02;43.19
25638;BME280;13496;51.040;13.680;2023-05-12T16:13:16;99866.06;;;24.96;43.00
25638;BME280;13496;51.040;13.680;2023-05-12T16:18:18;99863.28;;;24.91;42.92
25638;BME280;13496;51.040;13.680;2023-05-12T16:23:20;99844.34;;;24.87;42.99
25638;BME280;13496;51.040;13.680;2023-05-12T16:28:21;99839.25;;;24.86;43.17
25638;BME280;13496;51.040;13.680;2023-05-12T16:33:23;99833.84;;;24.81;42.75
25638;BME280;13496;51.040;13.680;2023-05-12T16:38:25;99832.66;;;24.77;43.11
25638;BME280;13496;51.040;13.680;2023-05-12T16:43:27;99842.69;;;24.75;43.07
25638;BME280;13496;51.040;13.680;2023-05-12T16:48:29;99842.09;;;24.73;43.27
25638;BME280;13496;51.040;13.680;2023-05-12T16:53:34;99856.41;;;24.72;43.24
25638;BME280;13496;51.040;13.680;2023-05-12T16:58:36;99869.69;;;24.72;43.10
25638;BME280;13496;51.040;13.680;2023-05-12T17:03:38;99867.03;;;24.72;43.01
25638;BME280;13496;51.040;13.680;2023-05-12T17:08:40;99878.09;;;24.69;43.43
25638;BME280;13496;51.040;13.680;2023-05-12T17:13:42;99890.56;;;24.68;42.87
25638;BME280;13496;51.040;13.680;2023-05-12T17:18:43;99904.06;;;24.67;42.12
25638;BME280;13496;51.040;13.680;2023-05-12T17:23:45;99899.56;;;24.67;42.52
25638;BME280;13496;51.040;13.680;2023-05-12T17:28:47;99896.31;;;24.65;42.34
25638;BME280;13496;51.040;13.680;2023-05-12T17:33:49;99895.50;;;24.65;42.15
25638;BME280;13496;51.040;13.680;2023-05-12T17:38:50;99903.69;;;24.63;43.49
25638;BME280;13496;51.040;13.680;2023-05-12T17:43:52;99907.34;;;24.62;43.15
25638;BME280;13496;51.040;13.680;2023-05-12T17:48:54;99909.19;;;24.61;43.42
25638;BME280;13496;51.040;13.680;2023-05-12T17:53:56;99909.19;;;24.61;43.08
25638;BME280;13496;51.040;13.680;2023-05-12T17:58:57;99916.59;;;24.59;43.35
25638;BME280;13496;51.040;13.680;2023-05-12T18:03:59;99901.94;;;24.57;43.11
25638;BME280;13496;51.040;13.680;2023-05-12T18:09:01;99904.00;;;24.55;42.64
25638;BME280;13496;51.040;13.680;2023-05-12T18:14:03;99911.13;;;24.54;43.15
25638;BME280;13496;51.040;13.680;2023-05-12T18:19:07;99914.25;;;24.51;43.58
25638;BME280;13496;51.040;13.680;2023-05-12T18:24:09;99908.34;;;24.49;43.01
25638;BME280;13496;51.040;13.680;2023-05-12T18:29:10;99908.78;;;24.46;43.06
25638;BME280;13496;51.040;13.680;2023-05-12T18:34:12;99920.44;;;24.45;43.04
25638;BME280;13496;51.040;13.680;2023-05-12T18:39:14;99924.34;;;24.43;42.68
25638;BME280;13496;51.040;13.680;2023-05-12T18:44:15;99933.56;;;24.40;43.29
25638;BME280;13496;51.040;13.680;2023-05-12T18:49:17;99927.63;;;24.38;43.15
25638;BME280;13496;51.040;13.680;2023-05-12T18:54:19;99937.44;;;24.37;43.37
25638;BME280;13496;51.040;13.680;2023-05-12T18:59:21;99943.97;;;24.35;43.71
25638;BME280;13496;51.040;13.680;2023-05-12T19:04:23;99947.06;;;24.32;43.12
25638;BME280;13496;51.040;13.680;2023-05-12T19:09:24;99955.25;;;24.30;42.80
25638;BME280;13496;51.040;13.680;2023-05-12T19:14:26;99958.16;;;24.29;43.12
25638;BME280;13496;51.040;13.680;2023-05-12T19:19:28;99968.75;;;24.29;43.17
25638;BME280;13496;51.040;13.680;2023-05-12T19:24:29;99974.25;;;24.27;43.59
25638;BME280;13496;51.040;13.680;2023-05-12T19:29:31;99979.78;;;24.26;43.39
25638;BME280;13496;51.040;13.680;2023-05-12T19:34:33;99980.81;;;24.25;43.51
25638;BME280;13496;51.040;13.680;2023-05-12T19:39:35;99988.19;;;24.23;43.95
25638;BME280;13496;51.040;13.680;2023-05-12T19:44:36;100000.84;;;24.21;44.02
25638;BME280;13496;51.040;13.680;2023-05-12T19:49:38;99993.13;;;24.19;44.40
25638;BME280;13496;51.040;13.680;2023-05-12T19:54:40;99997.59;;;24.19;44.17
25638;BME280;13496;51.040;13.680;2023-05-12T19:59:41;100004.97;;;24.17;44.58
25638;BME280;13496;51.040;13.680;2023-05-12T20:04:43;100016.59;;;24.15;44.51
25638;BME280;13496;51.040;13.680;2023-05-12T20:09:45;100016.00;;;24.13;44.62
25638;BME280;13496;51.040;13.680;2023-05-12T20:14:47;100016.00;;;24.13;44.45
25638;BME280;13496;51.040;13.680;2023-05-12T20:24:50;100018.50;;;24.08;44.55
25638;BME280;13496;51.040;13.680;2023-05-12T20:29:51;100020.34;;;24.08;44.72
25638;BME280;13496;51.040;13.680;2023-05-12T20:34:53;100020.78;;;24.05;44.52
25638;BME280;13496;51.040;13.680;2023-05-12T20:39:55;100013.06;;;24.03;44.45
25638;BME280;13496;51.040;13.680;2023-05-12T20:44:57;100007.94;;;24.02;44.50
25638;BME280;13496;51.040;13.680;2023-05-12T20:49:59;100010.03;;;24.00;44.45
25638;BME280;13496;51.040;13.680;2023-05-12T20:55:06;100023.47;;;23.98;44.72
25638;BME280;13496;51.040;13.680;2023-05-12T21:00:09;100025.75;;;23.95;44.65
25638;BME280;13496;51.040;13.680;2023-05-12T21:05:11;100023.09;;;23.95;44.56
25638;BME280;13496;51.040;13.680;2023-05-12T21:10:13;100032.88;;;23.94;44.35
25638;BME280;13496;51.040;13.680;2023-05-12T21:15:14;100032.31;;;23.92;44.34
25638;BME280;13496;51.040;13.680;2023-05-12T21:20:16;100037.81;;;23.90;44.72
25638;BME280;13496;51.040;13.680;2023-05-12T21:25:19;100043.34;;;23.89;44.22
25638;BME280;13496;51.040;13.680;2023-05-12T21:30:21;100038.47;;;23.86;44.43
25638;BME280;13496;51.040;13.680;2023-05-12T21:35:22;100043.16;;;23.84;44.58
25638;BME280;13496;51.040;13.680;2023-05-12T21:40:24;100046.03;;;23.82;44.52
25638;BME280;13496;51.040;13.680;2023-05-12T21:45:26;100056.03;;;23.80;44.64
25638;BME280;13496;51.040;13.680;2023-05-12T21:50:28;100055.44;;;23.78;44.80
25638;BME280;13496;51.040;13.680;2023-05-12T21:55:30;100066.25;;;23.77;44.79
25638;BME280;13496;51.040;13.680;2023-05-12T22:00:31;100058.75;;;23.74;44.63
25638;BME280;13496;51.040;13.680;2023-05-12T22:05:33;100065.03;;;23.73;44.62
25638;BME280;13496;51.040;13.680;2023-05-12T22:10:35;100070.56;;;23.71;45.08
25638;BME280;13496;51.040;13.680;2023-05-12T22:15:37;100070.78;;;23.70;44.60
25638;BME280;13496;51.040;13.680;2023-05-12T22:20:39;100075.47;;;23.67;44.52
25638;BME280;13496;51.040;13.680;2023-05-12T22:25:41;100073.88;;;23.66;44.55
25638;BME280;13496;51.040;13.680;2023-05-12T22:30:43;100081.19;;;23.64;44.89
25638;BME280;13496;51.040;13.680;2023-05-12T22:35:45;100076.28;;;23.61;44.90
25638;BME280;13496;51.040;13.680;2023-05-12T22:40:46;100087.13;;;23.60;44.94
25638;BME280;13496;51.040;13.680;2023-05-12T22:45:49;100083.66;;;23.59;44.74
25638;BME280;13496;51.040;13.680;2023-05-12T22:50:53;100086.13;;;23.54;45.24
25638;BME280;13496;51.040;13.680;2023-05-12T22:55:54;100084.50;;;23.53;45.20
25638;BME280;13496;51.040;13.680;2023-05-12T23:00:56;100096.53;;;23.49;45.22
25638;BME280;13496;51.040;13.680;2023-05-12T23:05:58;100102.06;;;23.48;45.40
25638;BME280;13496;51.040;13.680;2023-05-12T23:10:59;100100.03;;;23.43;45.39
25638;BME280;13496;51.040;13.680;2023-05-12T23:16:01;100107.38;;;23.41;45.54
25638;BME280;13496;51.040;13.680;2023-05-12T23:21:03;100105.78;;;23.40;45.35
25638;BME280;13496;51.040;13.680;2023-05-12T23:26:04;100094.78;;;23.36;45.54
25638;BME280;13496;51.040;13.680;2023-05-12T23:31:06;100098.66;;;23.34;45.43
25638;BME280;13496;51.040;13.680;2023-05-12T23:36:08;100100.09;;;23.30;45.42
25638;BME280;13496;51.040;13.680;2023-05-12T23:41:10;100098.28;;;23.30;45.55
25638;BME280;13496;51.040;13.680;2023-05-12T23:46:11;100097.25;;;23.25;45.58
25638;BME280;13496;51.040;13.680;2023-05-12T23:51:13;100111.53;;;23.24;45.71
25638;BME280;13496;51.040;13.680;2023-05-12T23:56:15;100109.09;;;23.22;45.65
